Time;durP1;ratioP1;P1;durP2;ratioP2;P2;SDS_P1;SDS_P2;PMS_P1;PMS_P2;Temp;Humidity;BMP_temperature;BMP_pressure;BME280_temperature;BME280_humidity;BME280_pressure;Samples;Min_cycle;Max_cycle;Signal;HPM_P1;HPM_P2
2023/08/06 00:01:30;;;;;;;8.10;1.77;;;43.90;24.10;;;;;;5055218;28;20092;-59
2023/08/06 00:03:56;;;;;;;6.43;1.80;;;43.80;24.10;;;;;;5059615;28;20036;-60
2023/08/06 00:06:22;;;;;;;9.13;1.63;;;43.80;24.50;;;;;;5057765;28;20578;-60
2023/08/06 00:08:49;;;;;;;6.65;1.92;;;43.70;24.50;;;;;;5051987;28;20452;-59
2023/08/06 00:11:15;;;;;;;8.70;1.85;;;43.70;24.60;;;;;;5054819;28;20071;-59
2023/08/06 00:13:41;;;;;;;19.60;2.00;;;43.70;24.20;;;;;;5060397;28;20045;-59
2023/08/06 00:16:12;;;;;;;4.07;1.52;;;43.70;23.90;;;;;;5063530;28;20130;-63
2023/08/06 00:18:41;;;;;;;7.82;1.67;;;43.60;24.10;;;;;;5060438;28;20519;-61
2023/08/06 00:21:07;;;;;;;13.10;2.05;;;43.50;24.30;;;;;;5045175;28;20062;-59
2023/08/06 00:23:33;;;;;;;9.35;1.73;;;43.50;23.40;;;;;;5040068;28;20074;-60
2023/08/06 00:26:00;;;;;;;7.68;2.10;;;43.50;23.70;;;;;;5039248;28;20138;-59
2023/08/06 00:28:26;;;;;;;4.72;1.80;;;43.30;22.70;;;;;;5041775;28;20383;-60
2023/08/06 00:30:54;;;;;;;7.43;1.58;;;43.30;22.80;;;;;;5039190;28;20056;-58
2023/08/06 00:33:21;;;;;;;7.80;1.83;;;43.30;23.40;;;;;;5038811;28;20047;-59
2023/08/06 00:35:47;;;;;;;5.80;1.30;;;43.20;23.10;;;;;;5034595;28;20052;-59
2023/08/06 00:38:14;;;;;;;5.53;1.45;;;43.20;23.60;;;;;;5035202;28;20771;-59
2023/08/06 00:40:40;;;;;;;14.20;1.90;;;43.10;23.30;;;;;;5034380;28;20069;-58
2023/08/06 00:43:07;;;;;;;8.85;1.42;;;43.00;23.00;;;;;;5033466;28;20047;-60
2023/08/06 00:45:37;;;;;;;10.48;1.70;;;43.00;23.40;;;;;;5032494;28;20053;-61
2023/08/06 00:48:08;;;;;;;7.70;1.70;;;42.90;22.80;;;;;;5034145;28;20515;-59
2023/08/06 00:50:35;;;;;;;5.47;1.42;;;42.90;22.90;;;;;;5039476;28;20069;-59
2023/08/06 00:53:02;;;;;;;8.73;1.80;;;42.80;22.90;;;;;;5041346;28;20136;-60
2023/08/06 00:55:29;;;;;;;12.93;1.73;;;42.80;23.00;;;;;;5037601;28;20051;-58
2023/08/06 00:57:56;;;;;;;11.70;1.92;;;42.70;23.00;;;;;;5041569;28;20409;-58
2023/08/06 01:00:24;;;;;;;4.13;1.52;;;42.70;23.00;;;;;;5037480;28;20065;-57
2023/08/06 01:02:50;;;;;;;3.80;1.42;;;42.60;23.40;;;;;;5033827;28;20410;-59
2023/08/06 01:05:17;;;;;;;5.35;1.40;;;42.60;23.40;;;;;;5036296;28;20107;-59
2023/08/06 01:08:00;;;;;;;6.32;1.45;;;42.50;23.50;;;;;;5035384;28;20048;-59
2023/08/06 01:11:05;;;;;;;7.63;2.08;;;42.50;23.70;;;;;;5032346;28;20168;-58
2023/08/06 01:13:46;;;;;;;12.38;1.85;;;42.40;24.20;;;;;;5032143;28;20637;-58
2023/08/06 01:16:20;;;;;;;6.13;1.75;;;42.30;24.80;;;;;;5037240;28;20067;-59
2023/08/06 01:18:49;;;;;;;7.03;1.95;;;42.20;24.70;;;;;;5036178;28;20067;-59
2023/08/06 01:21:19;;;;;;;13.05;1.75;;;42.20;24.80;;;;;;5038163;28;20538;-55
2023/08/06 01:23:47;;;;;;;6.47;1.83;;;42.10;24.60;;;;;;5034270;28;20062;-59
2023/08/06 01:26:16;;;;;;;7.10;1.83;;;42.10;24.80;;;;;;5032610;28;20140;-59
2023/08/06 01:28:54;;;;;;;7.13;1.88;;;42.00;24.70;;;;;;5037719;28;20051;-59
2023/08/06 01:31:30;;;;;;;10.13;1.75;;;42.00;24.80;;;;;;5033841;28;20072;-59
2023/08/06 01:33:59;;;;;;;8.15;1.67;;;42.00;25.10;;;;;;5036624;28;20054;-59
2023/08/06 01:36:26;;;;;;;10.70;2.10;;;41.90;25.50;;;;;;5033812;28;20115;-59
2023/08/06 01:38:57;;;;;;;11.00;2.08;;;41.90;26.00;;;;;;5036506;28;20499;-60
2023/08/06 01:41:23;;;;;;;15.30;2.13;;;42.00;26.40;;;;;;5034773;28;20111;-58
2023/08/06 01:43:50;;;;;;;12.43;1.80;;;41.90;25.60;;;;;;5034920;28;20415;-59
2023/08/06 01:46:17;;;;;;;11.98;2.20;;;41.90;26.50;;;;;;5033759;28;20051;-59
2023/08/06 01:48:43;;;;;;;13.73;2.22;;;42.20;25.60;;;;;;5032348;28;20057;-58
2023/08/06 01:51:10;;;;;;;20.08;2.10;;;42.40;25.10;;;;;;5037306;28;20085;-57
2023/08/06 01:53:36;;;;;;;12.52;2.40;;;42.20;25.00;;;;;;5034733;28;20108;-59
2023/08/06 01:56:03;;;;;;;9.65;1.90;;;42.10;25.30;;;;;;5034710;28;20529;-58
2023/08/06 01:58:29;;;;;;;8.15;1.83;;;42.20;25.40;;;;;;5034190;28;20544;-60
2023/08/06 02:00:55;;;;;;;10.88;2.85;;;42.30;25.20;;;;;;5032891;28;20060;-59
2023/08/06 02:03:22;;;;;;;8.13;2.10;;;42.40;25.60;;;;;;5081106;22;20098;-61
2023/08/06 02:05:48;;;;;;;13.55;2.78;;;42.10;25.70;;;;;;5047458;28;20143;-60
2023/08/06 02:08:15;;;;;;;8.55;2.10;;;41.70;26.10;;;;;;5048119;28;20065;-59
2023/08/06 02:10:41;;;;;;;20.88;2.47;;;41.50;26.70;;;;;;5048175;28;20053;-58
2023/08/06 02:13:07;;;;;;;12.85;2.13;;;41.30;27.10;;;;;;5047030;28;20535;-59
2023/08/06 02:15:34;;;;;;;10.20;2.85;;;41.10;27.50;;;;;;5047194;28;20543;-59
2023/08/06 02:18:00;;;;;;;7.47;2.20;;;40.90;28.30;;;;;;5047493;28;20126;-58
2023/08/06 02:20:27;;;;;;;11.52;2.00;;;40.80;29.40;;;;;;5048469;28;20522;-59
2023/08/06 02:22:53;;;;;;;9.15;2.40;;;40.60;30.00;;;;;;5039253;28;20103;-58
2023/08/06 02:25:19;;;;;;;8.57;2.00;;;40.50;30.30;;;;;;5028116;28;20063;-59
2023/08/06 02:27:46;;;;;;;11.02;2.50;;;40.40;30.60;;;;;;5027914;28;20063;-58
2023/08/06 02:30:12;;;;;;;14.93;2.97;;;40.20;30.90;;;;;;5028172;28;20071;-59
2023/08/06 02:32:38;;;;;;;15.48;2.80;;;40.10;31.20;;;;;;5027396;28;20076;-58
2023/08/06 02:35:05;;;;;;;17.73;2.30;;;40.00;31.00;;;;;;5026981;28;20067;-60
2023/08/06 02:37:34;;;;;;;23.00;3.40;;;39.90;31.00;;;;;;5027361;28;20082;-59
2023/08/06 02:40:00;;;;;;;18.83;3.80;;;39.90;31.00;;;;;;5026775;28;20193;-60
2023/08/06 02:42:27;;;;;;;15.50;3.75;;;39.80;30.90;;;;;;5027467;28;20065;-59
2023/08/06 02:44:56;;;;;;;21.65;4.35;;;39.70;30.30;;;;;;5027677;28;20069;-59
2023/08/06 02:47:23;;;;;;;20.75;4.82;;;39.60;30.40;;;;;;5028190;28;20064;-58
2023/08/06 02:49:50;;;;;;;21.25;3.38;;;39.50;29.80;;;;;;5028875;28;20534;-60
2023/08/06 02:52:16;;;;;;;19.65;3.05;;;39.30;29.20;;;;;;5027391;28;20138;-59
2023/08/06 02:54:43;;;;;;;16.10;2.78;;;39.20;29.30;;;;;;5026920;28;20493;-59
2023/08/06 02:57:10;;;;;;;17.60;2.38;;;39.10;29.60;;;;;;5027156;28;20071;-59
2023/08/06 02:59:36;;;;;;;15.52;2.67;;;38.90;30.00;;;;;;5026340;28;20159;-59
2023/08/06 03:02:03;;;;;;;19.48;3.10;;;38.80;30.40;;;;;;5026771;28;20099;-61
2023/08/06 03:04:29;;;;;;;27.15;4.63;;;38.70;31.10;;;;;;5027537;28;20085;-60
2023/08/06 03:06:55;;;;;;;24.65;3.22;;;38.60;31.90;;;;;;5027768;28;20071;-59
2023/08/06 03:09:22;;;;;;;17.95;3.53;;;38.50;33.00;;;;;;5026432;28;20069;-58
2023/08/06 03:11:48;;;;;;;20.90;3.53;;;38.40;33.80;;;;;;5026806;28;20076;-59
2023/08/06 03:14:15;;;;;;;27.92;3.97;;;38.30;34.30;;;;;;5026822;28;20182;-59
2023/08/06 03:16:41;;;;;;;21.48;3.72;;;38.30;35.40;;;;;;5026779;28;20081;-61
2023/08/06 03:19:07;;;;;;;17.48;3.15;;;38.10;36.00;;;;;;5026661;28;20113;-61
2023/08/06 03:21:34;;;;;;;22.15;3.17;;;38.00;37.20;;;;;;5027038;28;20081;-60
2023/08/06 03:24:00;;;;;;;20.05;3.00;;;37.90;38.40;;;;;;5025644;28;20074;-60
2023/08/06 03:26:26;;;;;;;26.05;3.58;;;37.80;39.70;;;;;;5027720;28;20072;-59
2023/08/06 03:28:53;;;;;;;15.95;3.00;;;37.70;40.90;;;;;;5026425;28;20499;-59
2023/08/06 03:31:19;;;;;;;18.27;2.95;;;37.50;41.80;;;;;;5026350;28;20078;-59
2023/08/06 03:33:45;;;;;;;15.60;2.78;;;37.50;42.40;;;;;;5026719;28;20117;-60
2023/08/06 03:36:12;;;;;;;24.88;3.10;;;37.40;42.40;;;;;;5030376;28;20078;-59
2023/08/06 03:38:38;;;;;;;27.35;3.38;;;37.30;42.40;;;;;;5029641;28;20093;-60
2023/08/06 03:41:05;;;;;;;18.38;3.22;;;37.20;40.60;;;;;;5030630;28;20546;-59
2023/08/06 03:43:31;;;;;;;10.85;2.58;;;37.10;40.20;;;;;;5029820;28;20126;-61
2023/08/06 03:45:58;;;;;;;20.60;3.05;;;37.10;39.60;;;;;;5030526;28;20069;-60
2023/08/06 03:48:24;;;;;;;17.73;2.65;;;37.50;36.90;;;;;;5028324;28;20120;-57
2023/08/06 03:50:51;;;;;;;17.92;2.63;;;38.00;35.70;;;;;;5029493;28;20070;-59
2023/08/06 03:53:17;;;;;;;18.85;3.65;;;38.20;35.00;;;;;;5027911;28;20078;-58
2023/08/06 03:55:43;;;;;;;27.95;3.58;;;38.10;34.80;;;;;;5029743;28;20152;-58
2023/08/06 03:58:10;;;;;;;16.58;3.15;;;38.20;34.90;;;;;;5030278;28;20115;-58
2023/08/06 04:00:36;;;;;;;14.60;3.03;;;38.10;36.20;;;;;;5029805;28;20073;-62
2023/08/06 04:03:02;;;;;;;22.52;3.22;;;38.10;37.50;;;;;;5027982;28;20071;-58
2023/08/06 04:05:32;;;;;;;20.70;3.13;;;38.00;38.70;;;;;;5029275;28;20078;-59
2023/08/06 04:07:59;;;;;;;19.83;3.72;;;38.00;39.70;;;;;;5028519;28;20069;-56
2023/08/06 04:10:26;;;;;;;18.48;3.92;;;37.80;40.70;;;;;;5029470;28;20171;-59
2023/08/06 04:12:52;;;;;;;24.48;3.65;;;37.80;41.40;;;;;;5028340;28;20131;-57
2023/08/06 04:15:19;;;;;;;32.42;3.67;;;37.60;42.40;;;;;;5028308;28;20111;-58
2023/08/06 04:17:45;;;;;;;26.20;5.20;;;37.40;43.60;;;;;;5029478;28;20102;-58
2023/08/06 04:20:11;;;;;;;26.50;4.93;;;37.30;45.00;;;;;;5029708;28;20079;-56
2023/08/06 04:22:38;;;;;;;21.77;4.03;;;37.20;45.90;;;;;;5028748;28;20548;-58
2023/08/06 04:25:05;;;;;;;27.17;4.07;;;37.00;47.20;;;;;;5028648;28;20091;-59
2023/08/06 04:27:31;;;;;;;29.55;3.63;;;37.00;48.30;;;;;;5029222;28;20501;-59
2023/08/06 04:29:58;;;;;;;18.17;3.63;;;36.70;49.50;;;;;;5029054;28;20093;-59
2023/08/06 04:32:25;;;;;;;23.42;3.47;;;36.70;50.60;;;;;;5027575;28;20539;-58
2023/08/06 04:34:51;;;;;;;21.02;4.00;;;36.40;51.50;;;;;;5025846;28;20196;-59
2023/08/06 04:37:18;;;;;;;15.38;3.03;;;36.50;52.80;;;;;;5029032;28;20094;-58
2023/08/06 04:39:44;;;;;;;17.13;3.10;;;36.50;53.70;;;;;;5029013;28;20077;-57
2023/08/06 04:42:10;;;;;;;16.50;3.88;;;36.30;54.60;;;;;;5028794;28;20081;-59
2023/08/06 04:44:37;;;;;;;11.95;3.50;;;36.20;55.00;;;;;;5026618;28;20560;-59
2023/08/06 04:47:03;;;;;;;21.75;4.38;;;36.10;55.20;;;;;;5029145;28;20134;-60
2023/08/06 04:49:30;;;;;;;13.77;4.00;;;36.00;55.60;;;;;;5029365;28;20469;-56
2023/08/06 04:51:56;;;;;;;18.27;3.13;;;35.90;55.90;;;;;;5029100;28;20135;-58
2023/08/06 04:54:22;;;;;;;12.05;2.88;;;35.90;56.40;;;;;;5028524;28;20072;-57
2023/08/06 04:56:49;;;;;;;26.67;3.60;;;35.90;56.80;;;;;;5029139;28;20167;-57
2023/08/06 04:59:15;;;;;;;16.02;3.58;;;35.80;57.10;;;;;;5028925;28;20135;-59
2023/08/06 05:01:42;;;;;;;26.92;4.22;;;35.70;57.50;;;;;;5028352;28;20084;-58
2023/08/06 05:04:08;;;;;;;13.57;3.22;;;35.60;57.50;;;;;;5028276;28;20128;-58
2023/08/06 05:06:34;;;;;;;15.57;3.03;;;35.60;57.90;;;;;;5029460;28;20102;-59
2023/08/06 05:09:01;;;;;;;18.60;3.63;;;35.50;58.10;;;;;;5028309;28;20083;-58
2023/08/06 05:11:27;;;;;;;31.60;3.13;;;35.50;58.30;;;;;;5028011;28;20183;-59
2023/08/06 05:13:54;;;;;;;17.85;2.90;;;35.50;58.50;;;;;;5028213;28;20088;-59
2023/08/06 05:16:20;;;;;;;10.63;2.47;;;35.40;58.50;;;;;;5028000;28;20115;-58
2023/08/06 05:18:46;;;;;;;14.23;3.05;;;35.40;58.70;;;;;;5026584;28;20101;-60
2023/08/06 05:21:13;;;;;;;18.33;3.13;;;35.40;58.70;;;;;;5027132;28;20087;-60
2023/08/06 05:23:39;;;;;;;16.15;3.20;;;35.30;58.90;;;;;;5027996;28;20089;-60
2023/08/06 05:26:05;;;;;;;13.82;2.72;;;35.30;59.20;;;;;;5027409;28;20215;-57
2023/08/06 05:28:32;;;;;;;12.80;3.20;;;35.20;59.10;;;;;;5027730;28;20087;-61
2023/08/06 05:30:58;;;;;;;25.85;4.18;;;35.20;59.20;;;;;;5027638;28;20637;-59
2023/08/06 05:33:25;;;;;;;18.02;3.08;;;35.10;59.40;;;;;;5027896;28;20553;-58
2023/08/06 05:35:51;;;;;;;16.77;3.33;;;35.10;59.90;;;;;;5027358;28;20453;-56
2023/08/06 05:38:17;;;;;;;14.10;3.67;;;35.00;60.40;;;;;;5028174;28;20089;-60
2023/08/06 05:40:44;;;;;;;11.00;3.15;;;34.90;61.20;;;;;;5028344;28;20069;-59
2023/08/06 05:43:10;;;;;;;16.92;3.78;;;34.80;61.50;;;;;;5027968;28;20166;-58
2023/08/06 05:45:37;;;;;;;16.33;3.08;;;34.90;61.80;;;;;;5026672;28;20496;-60
2023/08/06 05:48:03;;;;;;;18.88;3.25;;;34.80;62.20;;;;;;5026413;28;20134;-57
2023/08/06 05:50:30;;;;;;;20.92;3.60;;;34.70;62.60;;;;;;5028466;28;20079;-58
2023/08/06 05:52:56;;;;;;;19.48;4.32;;;34.70;63.10;;;;;;5026778;28;20565;-59
2023/08/06 05:55:23;;;;;;;18.02;3.85;;;34.70;63.20;;;;;;5026430;28;20195;-60
2023/08/06 05:57:49;;;;;;;20.80;3.13;;;34.60;63.70;;;;;;5026863;28;20584;-59
2023/08/06 06:00:15;;;;;;;16.65;4.05;;;34.50;64.30;;;;;;5027814;28;20194;-57
2023/08/06 06:02:42;;;;;;;18.40;3.90;;;34.40;65.70;;;;;;5028086;28;20081;-58
2023/08/06 06:05:08;;;;;;;12.80;3.65;;;34.40;65.30;;;;;;5027313;28;20570;-58
2023/08/06 06:07:35;;;;;;;13.32;3.42;;;34.30;65.60;;;;;;5027624;28;20085;-63
2023/08/06 06:10:01;;;;;;;12.95;3.67;;;34.30;65.80;;;;;;5026078;28;20497;-59
2023/08/06 06:12:28;;;;;;;13.30;3.97;;;34.30;66.30;;;;;;5027872;28;20453;-59
2023/08/06 06:14:54;;;;;;;14.43;3.70;;;34.30;66.70;;;;;;5027300;28;20088;-55
2023/08/06 06:17:21;;;;;;;13.32;3.90;;;34.20;66.90;;;;;;5025681;28;20516;-57
2023/08/06 06:19:47;;;;;;;12.40;3.65;;;34.20;67.80;;;;;;5025606;28;20084;-60
2023/08/06 06:22:14;;;;;;;12.40;4.25;;;34.10;68.10;;;;;;5025819;28;20170;-61
2023/08/06 06:24:41;;;;;;;19.05;4.40;;;34.10;68.10;;;;;;5025689;28;20088;-56
2023/08/06 06:27:07;;;;;;;15.02;4.20;;;34.00;68.10;;;;;;5027658;28;20508;-58
2023/08/06 06:29:34;;;;;;;12.32;3.05;;;34.00;69.00;;;;;;5026810;28;20076;-58
2023/08/06 06:32:00;;;;;;;13.88;4.05;;;33.90;68.80;;;;;;5026600;28;20542;-58
2023/08/06 06:34:26;;;;;;;11.07;3.53;;;33.90;69.60;;;;;;5026379;28;20084;-59
2023/08/06 06:36:53;;;;;;;15.63;3.20;;;33.80;70.10;;;;;;5027891;28;20513;-57
2023/08/06 06:39:21;;;;;;;15.50;4.03;;;33.80;70.70;;;;;;5026796;28;20093;-60
2023/08/06 06:41:47;;;;;;;16.50;3.45;;;33.80;70.80;;;;;;5027896;28;20069;-59
2023/08/06 06:44:14;;;;;;;11.48;3.38;;;33.80;71.50;;;;;;5027528;28;20473;-57
2023/08/06 06:46:41;;;;;;;13.40;3.25;;;33.70;72.10;;;;;;5026252;28;20081;-57
2023/08/06 06:49:07;;;;;;;8.45;3.15;;;33.80;72.70;;;;;;5027013;28;20631;-59
2023/08/06 06:51:34;;;;;;;11.65;3.13;;;33.80;73.10;;;;;;5025205;28;20095;-57
2023/08/06 06:54:00;;;;;;;12.02;2.95;;;33.70;73.30;;;;;;5026593;28;20462;-57
2023/08/06 06:56:27;;;;;;;10.85;3.28;;;33.60;74.40;;;;;;5026577;28;20089;-59
2023/08/06 06:58:53;;;;;;;15.40;3.53;;;33.70;75.70;;;;;;5024748;28;20099;-57
2023/08/06 07:01:19;;;;;;;22.38;3.90;;;33.70;76.80;;;;;;5025312;28;20095;-61
2023/08/06 07:03:46;;;;;;;21.60;4.80;;;33.60;77.70;;;;;;5027150;28;20548;-58
2023/08/06 07:06:12;;;;;;;16.92;5.15;;;33.50;77.80;;;;;;5027572;28;20482;-59
2023/08/06 07:08:39;;;;;;;26.70;6.40;;;33.50;78.90;;;;;;5028669;28;20315;-58
2023/08/06 07:11:06;;;;;;;22.73;5.07;;;33.30;80.30;;;;;;5026068;28;20108;-62
2023/08/06 07:13:34;;;;;;;19.90;6.03;;;33.20;81.70;;;;;;5026376;28;20139;-59
2023/08/06 07:16:00;;;;;;;20.10;5.13;;;33.30;83.20;;;;;;5026446;28;20665;-58
2023/08/06 07:18:27;;;;;;;18.58;5.40;;;33.20;84.50;;;;;;5026306;28;20096;-59
2023/08/06 07:20:55;;;;;;;27.75;7.00;;;33.20;85.70;;;;;;5027767;28;20077;-60
2023/08/06 07:23:23;;;;;;;22.52;8.60;;;33.10;86.80;;;;;;5025549;28;20108;-59
2023/08/06 07:25:50;;;;;;;22.85;8.45;;;33.10;87.60;;;;;;5026775;28;20076;-59
2023/08/06 07:28:17;;;;;;;23.33;6.38;;;33.40;88.60;;;;;;5025410;28;20073;-58
2023/08/06 07:30:45;;;;;;;37.92;7.15;;;33.70;88.80;;;;;;5025458;28;20514;-54
2023/08/06 07:33:12;;;;;;;47.22;7.97;;;34.10;88.00;;;;;;5025747;28;20550;-61
2023/08/06 07:35:38;;;;;;;20.35;5.35;;;34.60;86.00;;;;;;5024005;28;20139;-61
2023/08/06 07:38:05;;;;;;;18.85;4.55;;;34.50;86.40;;;;;;5026547;28;20089;-61
2023/08/06 07:40:31;;;;;;;14.27;3.95;;;34.40;88.00;;;;;;5025027;28;20099;-60
2023/08/06 07:42:58;;;;;;;13.57;4.60;;;34.30;89.00;;;;;;5024301;28;20087;-62
2023/08/06 07:45:26;;;;;;;12.45;3.75;;;34.60;88.70;;;;;;5024864;28;20097;-61
2023/08/06 07:47:53;;;;;;;11.82;4.20;;;34.60;88.30;;;;;;5025250;28;20080;-59
2023/08/06 07:50:19;;;;;;;17.38;4.10;;;34.60;88.00;;;;;;5025418;28;20191;-61
2023/08/06 07:52:45;;;;;;;19.23;4.30;;;34.50;87.00;;;;;;5025135;28;20084;-61
2023/08/06 07:55:12;;;;;;;19.95;5.03;;;34.40;86.40;;;;;;5024898;28;20096;-61
2023/08/06 07:57:38;;;;;;;15.82;4.22;;;34.30;86.70;;;;;;5025077;28;20100;-60
2023/08/06 08:00:05;;;;;;;25.98;5.43;;;34.20;87.00;;;;;;5024771;28;20154;-61
2023/08/06 08:02:32;;;;;;;20.75;4.82;;;34.20;87.90;;;;;;5024440;28;20085;-61
2023/08/06 08:04:58;;;;;;;20.73;5.43;;;34.20;87.70;;;;;;5024800;28;20104;-61
2023/08/06 08:07:24;;;;;;;22.00;4.70;;;34.00;88.60;;;;;;5025896;28;20180;-61
2023/08/06 08:09:51;;;;;;;13.32;4.57;;;33.90;89.70;;;;;;5023921;28;20081;-61
2023/08/06 08:12:17;;;;;;;35.63;5.63;;;34.00;90.30;;;;;;5025597;28;20158;-62
2023/08/06 08:14:45;;;;;;;18.77;4.32;;;34.00;90.80;;;;;;5024879;28;20080;-62
2023/08/06 08:17:12;;;;;;;21.45;4.63;;;34.00;91.30;;;;;;5024850;28;20540;-60
2023/08/06 08:19:38;;;;;;;16.58;4.72;;;33.90;91.70;;;;;;5024820;28;20214;-61
2023/08/06 08:22:04;;;;;;;18.40;4.35;;;33.90;92.10;;;;;;5027887;28;20081;-61
2023/08/06 08:24:31;;;;;;;20.92;4.85;;;34.00;92.70;;;;;;5028614;28;20088;-62
2023/08/06 08:26:57;;;;;;;29.48;5.38;;;34.10;92.80;;;;;;5028050;28;20077;-60
2023/08/06 08:29:23;;;;;;;16.52;4.72;;;34.10;93.00;;;;;;5028401;28;20569;-60
2023/08/06 08:31:50;;;;;;;16.00;4.25;;;34.00;93.60;;;;;;5027737;28;20555;-60
2023/08/06 08:34:17;;;;;;;24.73;4.85;;;33.80;94.40;;;;;;5029110;28;20089;-60
2023/08/06 08:36:46;;;;;;;19.50;5.22;;;33.70;95.20;;;;;;5029178;28;20087;-62
2023/08/06 08:39:14;;;;;;;12.88;4.07;;;33.50;95.80;;;;;;5028339;28;20111;-61
2023/08/06 08:41:40;;;;;;;16.98;4.45;;;33.50;96.70;;;;;;5027926;28;20488;-59
2023/08/06 08:44:10;;;;;;;17.50;4.55;;;33.50;97.00;;;;;;5027881;28;20158;-60
2023/08/06 08:46:40;;;;;;;12.65;3.83;;;33.40;97.70;;;;;;5028009;28;20080;-60
2023/08/06 08:49:06;;;;;;;17.77;5.18;;;33.20;98.30;;;;;;5027589;28;20128;-61
2023/08/06 08:51:35;;;;;;;15.90;4.63;;;33.20;98.50;;;;;;5028186;28;20158;-61
2023/08/06 08:54:04;;;;;;;24.92;5.38;;;33.10;98.30;;;;;;5027766;28;20088;-61
2023/08/06 08:56:31;;;;;;;21.05;5.53;;;33.00;98.70;;;;;;5027846;28;20092;-60
2023/08/06 08:58:58;;;;;;;18.85;4.45;;;32.80;99.10;;;;;;5029267;28;20089;-60
2023/08/06 09:01:26;;;;;;;18.55;4.80;;;32.70;99.50;;;;;;5028697;28;20134;-62
2023/08/06 09:03:55;;;;;;;23.00;5.43;;;32.60;99.90;;;;;;5028354;28;20191;-59
2023/08/06 09:06:22;;;;;;;20.33;5.43;;;32.60;99.90;;;;;;5028278;28;20603;-62
2023/08/06 09:08:56;;;;;;;17.85;5.03;;;32.50;99.90;;;;;;5030438;28;20085;-60
2023/08/06 09:11:23;;;;;;;22.63;5.53;;;32.50;99.90;;;;;;5028020;28;20103;-60
2023/08/06 09:13:50;;;;;;;20.48;5.20;;;32.30;99.90;;;;;;5028141;28;20088;-61
2023/08/06 09:16:16;;;;;;;19.65;5.22;;;32.30;99.90;;;;;;5028415;28;20108;-60
2023/08/06 09:18:42;;;;;;;21.13;5.00;;;32.20;99.90;;;;;;5028525;28;20109;-61
2023/08/06 09:21:15;;;;;;;15.50;5.53;;;32.10;99.90;;;;;;5029095;28;20085;-61
2023/08/06 09:23:41;;;;;;;23.92;6.43;;;32.10;99.90;;;;;;5028247;28;20084;-61
2023/08/06 09:26:12;;;;;;;23.52;5.97;;;32.10;99.90;;;;;;5027741;28;20081;-62
2023/08/06 09:28:41;;;;;;;22.40;6.07;;;31.90;99.90;;;;;;5028922;28;20092;-60
2023/08/06 09:31:09;;;;;;;29.63;7.38;;;32.00;99.90;;;;;;5028604;28;20072;-61
2023/08/06 09:33:37;;;;;;;22.85;6.75;;;31.90;99.90;;;;;;5029271;28;20089;-62
2023/08/06 09:36:11;;;;;;;21.90;7.05;;;31.80;99.90;;;;;;5029979;28;20073;-61
2023/08/06 09:38:41;;;;;;;23.08;6.72;;;31.80;99.90;;;;;;5028952;28;20100;-61
2023/08/06 09:41:08;;;;;;;29.27;7.07;;;31.80;99.90;;;;;;5027841;28;20077;-62
2023/08/06 09:43:42;;;;;;;22.70;6.55;;;31.80;99.90;;;;;;5027713;28;20538;-61
2023/08/06 09:46:13;;;;;;;25.60;7.28;;;31.70;99.90;;;;;;5027600;28;20094;-61
2023/08/06 09:48:41;;;;;;;22.45;5.82;;;31.70;99.90;;;;;;5027765;28;20085;-60
2023/08/06 09:51:09;;;;;;;18.25;6.28;;;31.60;99.90;;;;;;5028621;28;20095;-60
2023/08/06 09:53:39;;;;;;;18.30;5.60;;;31.60;99.90;;;;;;5028358;28;20084;-60
2023/08/06 09:56:05;;;;;;;16.40;5.50;;;31.50;99.90;;;;;;5027273;28;20116;-58
2023/08/06 09:58:33;;;;;;;19.98;5.53;;;31.60;99.90;;;;;;5027979;28;20196;-60
2023/08/06 10:01:01;;;;;;;18.08;5.80;;;31.60;99.90;;;;;;5027576;28;20077;-60
2023/08/06 10:03:29;;;;;;;18.92;5.72;;;31.50;99.90;;;;;;5026960;28;20101;-61
2023/08/06 10:05:57;;;;;;;18.20;5.80;;;31.50;99.90;;;;;;5027323;28;20081;-60
2023/08/06 10:08:23;;;;;;;22.95;5.78;;;31.20;99.90;;;;;;5028249;28;20096;-61
2023/08/06 10:10:50;;;;;;;23.67;5.88;;;31.20;99.90;;;;;;5027640;28;20116;-62
2023/08/06 10:13:19;;;;;;;24.13;5.93;;;31.40;99.90;;;;;;5026980;28;20088;-60
2023/08/06 10:15:46;;;;;;;25.05;6.13;;;31.40;99.90;;;;;;5027749;28;20088;-61
2023/08/06 10:18:17;;;;;;;24.95;6.35;;;31.40;99.90;;;;;;5026288;28;20192;-61
2023/08/06 10:20:44;;;;;;;23.40;5.22;;;31.20;99.90;;;;;;5026900;28;20242;-62
2023/08/06 10:23:13;;;;;;;27.65;5.85;;;31.20;99.90;;;;;;5027522;28;20581;-62
2023/08/06 10:25:42;;;;;;;21.52;5.82;;;31.30;99.90;;;;;;5028288;28;20908;-61
2023/08/06 10:28:11;;;;;;;23.90;6.22;;;31.30;99.90;;;;;;5026490;28;20502;-61
2023/08/06 10:30:43;;;;;;;24.67;6.95;;;31.30;99.90;;;;;;5027031;28;20092;-61
2023/08/06 10:33:10;;;;;;;23.30;6.15;;;31.30;99.90;;;;;;5025889;28;20576;-62
2023/08/06 10:35:50;;;;;;;26.17;6.10;;;31.20;99.90;;;;;;5026864;28;20179;-60
2023/08/06 10:38:25;;;;;;;21.85;5.80;;;31.20;99.90;;;;;;5027527;28;20175;-62
2023/08/06 10:40:53;;;;;;;28.58;6.25;;;31.10;99.90;;;;;;5026985;28;20105;-60
2023/08/06 10:43:31;;;;;;;29.02;5.78;;;31.10;99.90;;;;;;5027021;28;20603;-60
2023/08/06 10:46:00;;;;;;;20.85;5.65;;;31.10;99.90;;;;;;5026766;28;20089;-61
2023/08/06 10:48:40;;;;;;;17.00;5.53;;;31.00;99.90;;;;;;5026132;28;20082;-61
2023/08/06 10:51:11;;;;;;;19.27;5.15;;;30.90;99.90;;;;;;5026624;28;20081;-61
2023/08/06 10:53:38;;;;;;;13.55;4.75;;;30.80;99.90;;;;;;5026387;28;20099;-60
2023/08/06 10:56:15;;;;;;;19.92;6.05;;;30.70;99.90;;;;;;5026089;28;20223;-57
2023/08/06 10:58:42;;;;;;;18.63;5.40;;;30.80;99.90;;;;;;5025847;28;20096;-59
2023/08/06 11:01:09;;;;;;;21.95;6.38;;;30.70;99.90;;;;;;5026441;28;20458;-61
2023/08/06 11:03:37;;;;;;;16.02;4.88;;;30.70;99.90;;;;;;5026137;28;20101;-59
2023/08/06 11:06:05;;;;;;;21.77;6.13;;;30.70;99.90;;;;;;5025946;28;20172;-60
2023/08/06 11:08:37;;;;;;;16.23;5.95;;;30.70;99.90;;;;;;5026303;28;20088;-61
2023/08/06 11:11:12;;;;;;;20.10;6.47;;;30.80;99.90;;;;;;5025772;28;20084;-59
2023/08/06 11:13:45;;;;;;;24.33;7.53;;;30.80;99.90;;;;;;5026142;28;20219;-60
2023/08/06 11:16:23;;;;;;;24.95;6.38;;;30.80;99.90;;;;;;5025461;28;20137;-61
2023/08/06 11:18:49;;;;;;;22.55;6.85;;;30.80;99.90;;;;;;5025475;28;20525;-60
2023/08/06 11:21:20;;;;;;;27.88;8.68;;;30.80;99.90;;;;;;5026609;28;20142;-58
2023/08/06 11:23:46;;;;;;;27.88;9.65;;;30.80;99.90;;;;;;5027008;28;20093;-60
2023/08/06 11:26:12;;;;;;;29.17;9.75;;;30.70;99.90;;;;;;5026243;28;20113;-60
2023/08/06 11:28:40;;;;;;;29.10;9.63;;;30.60;99.90;;;;;;5026418;28;20137;-59
2023/08/06 11:31:06;;;;;;;24.80;8.55;;;30.70;99.90;;;;;;5026689;28;20172;-60
2023/08/06 11:33:33;;;;;;;24.42;8.68;;;30.60;99.90;;;;;;5025828;28;20080;-61
2023/08/06 11:36:01;;;;;;;19.40;6.35;;;30.50;99.90;;;;;;5026214;28;20145;-61
2023/08/06 11:38:31;;;;;;;23.05;7.10;;;30.40;99.90;;;;;;5026724;28;20088;-62
2023/08/06 11:40:57;;;;;;;25.73;6.93;;;30.50;99.90;;;;;;5026422;28;20076;-60
2023/08/06 11:43:23;;;;;;;26.77;7.43;;;30.50;99.90;;;;;;5025683;28;20131;-60
2023/08/06 11:45:52;;;;;;;29.23;7.95;;;30.50;99.90;;;;;;5025844;28;20085;-61
2023/08/06 11:48:18;;;;;;;17.98;6.55;;;30.40;99.90;;;;;;5025998;28;20557;-60
2023/08/06 11:50:45;;;;;;;24.30;7.05;;;30.20;99.90;;;;;;5027150;28;20093;-60
2023/08/06 11:53:15;;;;;;;25.08;7.13;;;30.20;99.90;;;;;;5024969;28;20077;-61
2023/08/06 11:55:42;;;;;;;19.17;6.78;;;30.10;99.90;;;;;;5026448;28;20084;-61
2023/08/06 11:58:11;;;;;;;22.73;7.03;;;30.20;99.90;;;;;;5029857;28;20577;-59
2023/08/06 12:00:38;;;;;;;24.05;7.60;;;30.10;99.90;;;;;;5030295;28;20093;-60
2023/08/06 12:03:05;;;;;;;14.30;6.13;;;30.10;99.90;;;;;;5029699;28;20088;-59
2023/08/06 12:05:33;;;;;;;14.65;5.45;;;30.20;99.90;;;;;;5029405;28;20509;-59
2023/08/06 12:08:01;;;;;;;16.77;6.15;;;30.10;99.90;;;;;;5029753;28;20418;-61
2023/08/06 12:10:32;;;;;;;18.70;5.90;;;30.20;99.90;;;;;;5029598;28;20076;-62
2023/08/06 12:12:59;;;;;;;16.00;5.25;;;30.20;99.90;;;;;;5029419;28;20449;-61
2023/08/06 12:15:26;;;;;;;16.05;5.18;;;30.10;99.90;;;;;;5028948;28;20581;-60
2023/08/06 12:17:52;;;;;;;18.98;4.70;;;30.10;99.90;;;;;;5029599;28;20101;-60
2023/08/06 12:20:19;;;;;;;12.88;4.30;;;30.10;99.90;;;;;;5030130;28;20082;-61
2023/08/06 12:22:46;;;;;;;19.65;5.28;;;30.10;99.90;;;;;;5029248;28;21011;-58
2023/08/06 12:25:13;;;;;;;16.33;5.10;;;30.00;99.90;;;;;;5027568;28;20086;-60
2023/08/06 12:27:41;;;;;;;14.75;4.63;;;29.90;99.90;;;;;;5028784;28;20143;-60
2023/08/06 12:30:08;;;;;;;10.73;4.35;;;30.00;99.90;;;;;;5029235;28;20450;-61
2023/08/06 12:32:35;;;;;;;16.23;4.45;;;29.90;99.90;;;;;;5029417;28;20105;-60
2023/08/06 12:35:02;;;;;;;14.73;4.25;;;29.90;99.90;;;;;;5029049;28;20572;-61
2023/08/06 12:37:29;;;;;;;14.65;4.60;;;29.80;99.90;;;;;;5028481;28;20096;-60
2023/08/06 12:39:56;;;;;;;20.77;5.30;;;29.80;99.90;;;;;;5028872;28;20119;-59